sensor_id;sensor_type;location;lat;lon;timestamp;pressure;altitude;pressure_sealevel;temperature;humidity
31337;BME280;22846;42.654;23.314;2023-01-30T00:01:06;94701.59;;;22.85;49.38
31337;BME280;22846;42.654;23.314;2023-01-30T00:03:36;94704.75;;;22.83;48.95
31337;BME280;22846;42.654;23.314;2023-01-30T00:06:02;94699.72;;;22.82;49.22
31337;BME280;22846;42.654;23.314;2023-01-30T00:08:27;94695.47;;;22.81;49.26
31337;BME280;22846;42.654;23.314;2023-01-30T00:10:52;94692.41;;;22.79;49.15
31337;BME280;22846;42.654;23.314;2023-01-30T00:13:18;94690.88;;;22.78;49.24
31337;BME280;22846;42.654;23.314;2023-01-30T00:15:43;94682.34;;;22.76;49.43
31337;BME280;22846;42.654;23.314;2023-01-30T00:18:09;94689.00;;;22.75;49.18
31337;BME280;22846;42.654;23.314;2023-01-30T00:20:35;94685.50;;;22.74;49.14
31337;BME280;22846;42.654;23.314;2023-01-30T00:23:00;94694.88;;;22.73;49.71
31337;BME280;22846;42.654;23.314;2023-01-30T00:25:26;94690.63;;;22.72;49.46
31337;BME280;22846;42.654;23.314;2023-01-30T00:27:52;94689.84;;;22.72;49.58
31337;BME280;22846;42.654;23.314;2023-01-30T00:30:18;94690.25;;;22.70;49.49
31337;BME280;22846;42.654;23.314;2023-01-30T00:32:43;94686.78;;;22.70;49.44
31337;BME280;22846;42.654;23.314;2023-01-30T00:35:08;94691.88;;;22.68;49.67
31337;BME280;22846;42.654;23.314;2023-01-30T00:37:34;94690.34;;;22.67;49.40
31337;BME280;22846;42.654;23.314;2023-01-30T00:40:00;94686.88;;;22.66;49.25
31337;BME280;22846;42.654;23.314;2023-01-30T00:42:25;94681.81;;;22.65;49.76
31337;BME280;22846;42.654;23.314;2023-01-30T00:45:10;94680.31;;;22.64;49.25
31337;BME280;22846;42.654;23.314;2023-01-30T00:47:54;94678.00;;;22.62;49.59
31337;BME280;22846;42.654;23.314;2023-01-30T00:50:20;94668.28;;;22.61;49.70
31337;BME280;22846;42.654;23.314;2023-01-30T00:52:46;94678.44;;;22.61;49.46
31337;BME280;22846;42.654;23.314;2023-01-30T00:55:11;94667.97;;;22.59;49.70
31337;BME280;22846;42.654;23.314;2023-01-30T00:57:37;94658.25;;;22.58;49.83
31337;BME280;22846;42.654;23.314;2023-01-30T01:00:03;94657.47;;;22.58;49.62
31337;BME280;22846;42.654;23.314;2023-01-30T01:02:30;94667.63;;;22.57;49.82
31337;BME280;22846;42.654;23.314;2023-01-30T01:04:56;94661.13;;;22.51;49.46
31337;BME280;22846;42.654;23.314;2023-01-30T01:07:21;94661.81;;;22.55;49.65
31337;BME280;22846;42.654;23.314;2023-01-30T01:09:46;94667.28;;;22.55;49.43
31337;BME280;22846;42.654;23.314;2023-01-30T01:12:12;94648.66;;;22.54;49.37
31337;BME280;22846;42.654;23.314;2023-01-30T01:14:37;94662.66;;;22.52;49.53
31337;BME280;22846;42.654;23.314;2023-01-30T01:17:03;94662.66;;;22.52;49.44
31337;BME280;22846;42.654;23.314;2023-01-30T01:19:28;94661.13;;;22.51;49.43
31337;BME280;22846;42.654;23.314;2023-01-30T01:21:54;94656.13;;;22.50;49.70
31337;BME280;22846;42.654;23.314;2023-01-30T01:24:20;94641.47;;;22.44;49.68
31337;BME280;22846;42.654;23.314;2023-01-30T01:26:46;94649.56;;;22.47;49.71
31337;BME280;22846;42.654;23.314;2023-01-30T01:29:15;94650.75;;;22.46;49.74
31337;BME280;22846;42.654;23.314;2023-01-30T01:31:42;94653.47;;;22.46;49.44
31337;BME280;22846;42.654;23.314;2023-01-30T01:34:08;94653.47;;;22.46;49.79
31337;BME280;22846;42.654;23.314;2023-01-30T01:36:33;94654.66;;;22.45;49.35
31337;BME280;22846;42.654;23.314;2023-01-30T01:38:59;94635.78;;;22.38;49.63
31337;BME280;22846;42.654;23.314;2023-01-30T01:41:25;94641.91;;;22.42;49.58
31337;BME280;22846;42.654;23.314;2023-01-30T01:44:10;94647.34;;;22.42;49.47
31337;BME280;22846;42.654;23.314;2023-01-30T01:46:55;94649.72;;;22.40;49.74
31337;BME280;22846;42.654;23.314;2023-01-30T01:51:58;94652.09;;;22.38;49.51
31337;BME280;22846;42.654;23.314;2023-01-30T01:56:55;94650.56;;;22.37;49.57
31337;BME280;22846;42.654;23.314;2023-01-30T01:59:26;94650.22;;;22.35;49.33
31337;BME280;22846;42.654;23.314;2023-01-30T02:01:56;94644.78;;;22.35;49.53
31337;BME280;22846;42.654;23.314;2023-01-30T02:04:24;94647.50;;;22.35;49.53
31337;BME280;22846;42.654;23.314;2023-01-30T02:07:09;94651.41;;;22.34;49.35
31337;BME280;22846;42.654;23.314;2023-01-30T02:09:34;94654.13;;;22.34;49.26
31337;BME280;22846;42.654;23.314;2023-01-30T02:12:01;94648.34;;;22.32;49.45
31337;BME280;22846;42.654;23.314;2023-01-30T02:14:30;94653.03;;;22.32;49.44
31337;BME280;22846;42.654;23.314;2023-01-30T02:16:56;94654.22;;;22.31;49.17
31337;BME280;22846;42.654;23.314;2023-01-30T02:19:23;94650.72;;;22.30;49.59
31337;BME280;22846;42.654;23.314;2023-01-30T02:22:14;94654.59;;;22.29;49.42
31337;BME280;22846;42.654;23.314;2023-01-30T02:41:30;94652.03;;;22.23;49.60
31337;BME280;22846;42.654;23.314;2023-01-30T02:44:03;94649.75;;;22.21;49.47
31337;BME280;22846;42.654;23.314;2023-01-30T02:46:49;94639.63;;;22.22;49.67
31337;BME280;22846;42.654;23.314;2023-01-30T02:49:29;94638.09;;;22.21;49.55
31337;BME280;22846;42.654;23.314;2023-01-30T02:51:56;94638.09;;;22.21;49.39
31337;BME280;22846;42.654;23.314;2023-01-30T02:54:24;94635.81;;;22.19;49.28
31337;BME280;22846;42.654;23.314;2023-01-30T02:56:56;94636.19;;;22.18;49.49
31337;BME280;22846;42.654;23.314;2023-01-30T02:59:34;94637.41;;;22.17;49.35
31337;BME280;22846;42.654;23.314;2023-01-30T03:10:26;94643.25;;;22.15;49.42
31337;BME280;22846;42.654;23.314;2023-01-30T03:13:04;94646.41;;;22.14;49.47
31337;BME280;22846;42.654;23.314;2023-01-30T03:15:40;94636.28;;;22.14;49.54
31337;BME280;22846;42.654;23.314;2023-01-30T03:18:08;94636.28;;;22.14;49.14
31337;BME280;22846;42.654;23.314;2023-01-30T03:20:38;94631.28;;;22.13;49.47
31337;BME280;22846;42.654;23.314;2023-01-30T03:23:04;94621.56;;;22.12;49.40
31337;BME280;22846;42.654;23.314;2023-01-30T03:25:30;94613.41;;;22.12;49.66
31337;BME280;22846;42.654;23.314;2023-01-30T03:27:57;94614.59;;;22.11;49.37
31337;BME280;22846;42.654;23.314;2023-01-30T03:30:24;94609.16;;;22.11;49.23
31337;BME280;22846;42.654;23.314;2023-01-30T03:32:50;94608.41;;;22.10;49.46
31337;BME280;22846;42.654;23.314;2023-01-30T03:35:15;94602.94;;;22.10;49.58
31337;BME280;22846;42.654;23.314;2023-01-30T03:37:43;94602.59;;;22.08;49.50
31337;BME280;22846;42.654;23.314;2023-01-30T03:40:11;94589.81;;;22.05;49.42
31337;BME280;22846;42.654;23.314;2023-01-30T03:42:36;94595.63;;;22.07;49.31
31337;BME280;22846;42.654;23.314;2023-01-30T03:45:03;94594.09;;;22.06;49.48
31337;BME280;22846;42.654;23.314;2023-01-30T03:47:29;94593.34;;;22.06;49.25
31337;BME280;22846;42.654;23.314;2023-01-30T03:49:54;94596.81;;;22.06;49.37
31337;BME280;22846;42.654;23.314;2023-01-30T03:52:20;94592.53;;;22.05;49.37
31337;BME280;22846;42.654;23.314;2023-01-30T03:54:45;94596.06;;;22.06;49.40
31337;BME280;22846;42.654;23.314;2023-01-30T03:57:10;94589.06;;;22.05;49.28
31337;BME280;22846;42.654;23.314;2023-01-30T03:59:36;94595.69;;;22.04;48.98
31337;BME280;22846;42.654;23.314;2023-01-30T04:02:01;94588.28;;;22.04;49.18
31337;BME280;22846;42.654;23.314;2023-01-30T04:04:27;94587.19;;;22.02;49.36
31337;BME280;22846;42.654;23.314;2023-01-30T04:06:52;94580.56;;;22.03;49.21
31337;BME280;22846;42.654;23.314;2023-01-30T04:09:17;94576.41;;;22.14;49.28
31337;BME280;22846;42.654;23.314;2023-01-30T04:11:43;94583.88;;;22.45;48.49
31337;BME280;22846;42.654;23.314;2023-01-30T04:14:08;94576.19;;;22.72;47.73
31337;BME280;22846;42.654;23.314;2023-01-30T04:16:34;94586.22;;;22.91;47.50
31337;BME280;22846;42.654;23.314;2023-01-30T04:18:59;94591.91;;;23.12;47.43
31337;BME280;22846;42.654;23.314;2023-01-30T04:21:25;94599.31;;;23.28;47.10
31337;BME280;22846;42.654;23.314;2023-01-30T04:23:50;94595.09;;;23.39;46.43
31337;BME280;22846;42.654;23.314;2023-01-30T04:26:15;94588.81;;;23.55;46.55
31337;BME280;22846;42.654;23.314;2023-01-30T04:28:41;94592.22;;;23.71;46.20
31337;BME280;22846;42.654;23.314;2023-01-30T04:31:08;94589.22;;;23.82;45.95
31337;BME280;22846;42.654;23.314;2023-01-30T04:33:34;94588.94;;;23.92;45.50
31337;BME280;22846;42.654;23.314;2023-01-30T04:36:01;94586.72;;;23.99;45.64
31337;BME280;22846;42.654;23.314;2023-01-30T04:38:28;94597.47;;;24.06;45.25
31337;BME280;22846;42.654;23.314;2023-01-30T04:40:55;94570.47;;;24.08;45.04
31337;BME280;22846;42.654;23.314;2023-01-30T04:43:22;94583.94;;;24.28;44.75
31337;BME280;22846;42.654;23.314;2023-01-30T04:45:49;94555.28;;;24.20;44.91
31337;BME280;22846;42.654;23.314;2023-01-30T04:48:16;94570.56;;;24.42;44.63
31337;BME280;22846;42.654;23.314;2023-01-30T04:50:42;94573.88;;;24.50;44.77
31337;BME280;22846;42.654;23.314;2023-01-30T04:53:09;94569.38;;;24.56;44.25
31337;BME280;22846;42.654;23.314;2023-01-30T04:55:34;94572.34;;;24.61;44.22
31337;BME280;22846;42.654;23.314;2023-01-30T04:58:00;94567.84;;;24.67;44.03
31337;BME280;22846;42.654;23.314;2023-01-30T05:00:26;94570.03;;;24.72;44.27
31337;BME280;22846;42.654;23.314;2023-01-30T05:02:51;94563.69;;;24.75;44.05
31337;BME280;22846;42.654;23.314;2023-01-30T05:05:17;94556.56;;;24.77;43.85
31337;BME280;22846;42.654;23.314;2023-01-30T05:07:43;94557.00;;;24.76;43.70
31337;BME280;22846;42.654;23.314;2023-01-30T05:10:09;94556.38;;;24.72;44.27
31337;BME280;22846;42.654;23.314;2023-01-30T05:12:35;94548.81;;;24.64;43.83
31337;BME280;22846;42.654;23.314;2023-01-30T05:15:00;94561.50;;;24.70;43.93
31337;BME280;22846;42.654;23.314;2023-01-30T05:17:26;94558.75;;;24.70;44.01
31337;BME280;22846;42.654;23.314;2023-01-30T05:19:51;94570.91;;;24.69;43.88
31337;BME280;22846;42.654;23.314;2023-01-30T05:22:16;94566.97;;;24.70;43.99
31337;BME280;22846;42.654;23.314;2023-01-30T05:24:42;94571.34;;;24.68;43.97
31337;BME280;22846;42.654;23.314;2023-01-30T05:27:07;94572.44;;;24.70;43.97
31337;BME280;22846;42.654;23.314;2023-01-30T05:29:33;94575.50;;;24.72;43.89
31337;BME280;22846;42.654;23.314;2023-01-30T05:31:58;94572.75;;;24.72;44.21
31337;BME280;22846;42.654;23.314;2023-01-30T05:34:23;94570.25;;;24.65;44.08
31337;BME280;22846;42.654;23.314;2023-01-30T05:36:49;94581.28;;;24.74;44.23
31337;BME280;22846;42.654;23.314;2023-01-30T05:39:14;94546.22;;;24.60;43.84
31337;BME280;22846;42.654;23.314;2023-01-30T05:41:40;94569.91;;;24.76;44.19
31337;BME280;22846;42.654;23.314;2023-01-30T05:44:05;94573.22;;;24.71;43.67
31337;BME280;22846;42.654;23.314;2023-01-30T05:46:31;94575.06;;;24.61;43.66
31337;BME280;22846;42.654;23.314;2023-01-30T05:48:56;94576.63;;;24.50;43.89
31337;BME280;22846;42.654;23.314;2023-01-30T05:51:24;94576.59;;;24.37;44.02
31337;BME280;22846;42.654;23.314;2023-01-30T05:53:50;94566.44;;;24.25;44.41
31337;BME280;22846;42.654;23.314;2023-01-30T05:56:17;94579.66;;;24.14;44.45
31337;BME280;22846;42.654;23.314;2023-01-30T05:58:43;94580.84;;;24.01;44.40
31337;BME280;22846;42.654;23.314;2023-01-30T06:01:11;94579.94;;;23.92;45.51
31337;BME280;22846;42.654;23.314;2023-01-30T06:03:37;94576.13;;;23.77;45.44
31337;BME280;22846;42.654;23.314;2023-01-30T06:06:04;94585.50;;;23.76;47.89
31337;BME280;22846;42.654;23.314;2023-01-30T06:08:30;94593.16;;;23.81;48.07
31337;BME280;22846;42.654;23.314;2023-01-30T06:11:15;94585.19;;;23.86;47.63
31337;BME280;22846;42.654;23.314;2023-01-30T06:13:41;94591.66;;;23.92;47.34
31337;BME280;22846;42.654;23.314;2023-01-30T06:16:10;94583.47;;;23.92;47.39
31337;BME280;22846;42.654;23.314;2023-01-30T06:18:38;94579.94;;;23.92;47.02
31337;BME280;22846;42.654;23.314;2023-01-30T06:21:04;94584.22;;;23.92;46.84
31337;BME280;22846;42.654;23.314;2023-01-30T06:23:30;94577.22;;;23.92;46.04
31337;BME280;22846;42.654;23.314;2023-01-30T06:25:56;94569.47;;;23.90;45.19
31337;BME280;22846;42.654;23.314;2023-01-30T06:28:22;94575.03;;;23.87;44.85
31337;BME280;22846;42.654;23.314;2023-01-30T06:30:48;94575.47;;;23.85;45.05
31337;BME280;22846;42.654;23.314;2023-01-30T06:33:14;94581.38;;;23.84;42.66
31337;BME280;22846;42.654;23.314;2023-01-30T06:35:40;94575.38;;;23.76;37.19
31337;BME280;22846;42.654;23.314;2023-01-30T06:38:07;94567.66;;;23.71;38.26
31337;BME280;22846;42.654;23.314;2023-01-30T06:40:46;94547.97;;;23.51;40.52
31337;BME280;22846;42.654;23.314;2023-01-30T06:43:13;94582.28;;;23.65;42.16
31337;BME280;22846;42.654;23.314;2023-01-30T06:45:39;94583.47;;;23.64;42.84
31337;BME280;22846;42.654;23.314;2023-01-30T06:48:04;94572.66;;;23.60;43.43
31337;BME280;22846;42.654;23.314;2023-01-30T06:50:31;94585.22;;;23.58;43.46
31337;BME280;22846;42.654;23.314;2023-01-30T06:52:57;94583.38;;;23.55;44.05
31337;BME280;22846;42.654;23.314;2023-01-30T06:55:24;94578.41;;;23.50;43.97
31337;BME280;22846;42.654;23.314;2023-01-30T06:58:06;94586.25;;;23.48;44.47
31337;BME280;22846;42.654;23.314;2023-01-30T07:00:32;94586.81;;;23.43;44.66
31337;BME280;22846;42.654;23.314;2023-01-30T07:02:58;94587.66;;;23.40;45.06
31337;BME280;22846;42.654;23.314;2023-01-30T07:05:24;94590.81;;;23.38;45.36
31337;BME280;22846;42.654;23.314;2023-01-30T07:07:50;94586.66;;;23.34;45.48
31337;BME280;22846;42.654;23.314;2023-01-30T07:10:15;94588.31;;;23.31;45.55
31337;BME280;22846;42.654;23.314;2023-01-30T07:12:41;94590.69;;;23.29;45.27
31337;BME280;22846;42.654;23.314;2023-01-30T07:15:06;94590.09;;;23.22;45.54
31337;BME280;22846;42.654;23.314;2023-01-30T07:17:32;94567.25;;;23.04;45.31
31337;BME280;22846;42.654;23.314;2023-01-30T07:19:58;94595.25;;;23.20;45.71
31337;BME280;22846;42.654;23.314;2023-01-30T07:22:24;94594.13;;;23.17;45.47
31337;BME280;22846;42.654;23.314;2023-01-30T07:24:49;94594.22;;;23.14;45.82
31337;BME280;22846;42.654;23.314;2023-01-30T07:27:14;94602.03;;;23.12;45.77
31337;BME280;22846;42.654;23.314;2023-01-30T07:29:40;94594.41;;;23.07;45.66
31337;BME280;22846;42.654;23.314;2023-01-30T07:32:07;94605.31;;;23.07;45.50
31337;BME280;22846;42.654;23.314;2023-01-30T07:34:36;94607.69;;;23.05;45.72
31337;BME280;22846;42.654;23.314;2023-01-30T07:37:02;94613.97;;;23.02;45.80
31337;BME280;22846;42.654;23.314;2023-01-30T07:39:27;94621.81;;;23.00;45.54
31337;BME280;22846;42.654;23.314;2023-01-30T07:41:53;94617.22;;;22.97;45.60
31337;BME280;22846;42.654;23.314;2023-01-30T07:44:18;94616.88;;;22.95;45.71
31337;BME280;22846;42.654;23.314;2023-01-30T07:46:43;94618.84;;;22.95;45.45
31337;BME280;22846;42.654;23.314;2023-01-30T07:49:09;94615.00;;;22.92;45.68
31337;BME280;22846;42.654;23.314;2023-01-30T07:51:34;94615.84;;;22.89;45.90
31337;BME280;22846;42.654;23.314;2023-01-30T07:54:00;94615.09;;;22.89;45.68
31337;BME280;22846;42.654;23.314;2023-01-30T07:56:26;94597.81;;;22.79;45.56
31337;BME280;22846;42.654;23.314;2023-01-30T07:58:53;94603.94;;;22.83;45.55
31337;BME280;22846;42.654;23.314;2023-01-30T08:01:19;94585.47;;;22.75;45.65
31337;BME280;22846;42.654;23.314;2023-01-30T08:03:45;94591.16;;;22.80;45.51
31337;BME280;22846;42.654;23.314;2023-01-30T08:06:11;94592.78;;;22.78;45.73
31337;BME280;22846;42.654;23.314;2023-01-30T08:08:38;94584.28;;;22.76;45.62
31337;BME280;22846;42.654;23.314;2023-01-30T08:11:04;94581.56;;;22.76;45.50
31337;BME280;22846;42.654;23.314;2023-01-30T08:13:29;94582.00;;;22.74;45.52
31337;BME280;22846;42.654;23.314;2023-01-30T08:15:58;94581.66;;;22.72;45.90
31337;BME280;22846;42.654;23.314;2023-01-30T08:18:24;94582.84;;;22.71;45.93
31337;BME280;22846;42.654;23.314;2023-01-30T08:20:49;94579.75;;;22.69;45.72
31337;BME280;22846;42.654;23.314;2023-01-30T08:23:15;94583.72;;;22.68;45.53
31337;BME280;22846;42.654;23.314;2023-01-30T08:25:40;94578.66;;;22.67;45.50
31337;BME280;22846;42.654;23.314;2023-01-30T08:28:07;94577.13;;;22.66;45.79
31337;BME280;22846;42.654;23.314;2023-01-30T08:30:32;94572.13;;;22.64;46.10
31337;BME280;22846;42.654;23.314;2023-01-30T08:32:57;94568.66;;;22.64;45.83
31337;BME280;22846;42.654;23.314;2023-01-30T08:35:23;94564.38;;;22.63;45.81
31337;BME280;22846;42.654;23.314;2023-01-30T08:37:50;94564.03;;;22.61;45.60
31337;BME280;22846;42.654;23.314;2023-01-30T08:40:15;94561.31;;;22.61;45.53
31337;BME280;22846;42.654;23.314;2023-01-30T08:42:43;94558.00;;;22.53;45.82
31337;BME280;22846;42.654;23.314;2023-01-30T08:45:09;94559.03;;;22.59;45.79
31337;BME280;22846;42.654;23.314;2023-01-30T08:47:35;94558.69;;;22.57;45.77
31337;BME280;22846;42.654;23.314;2023-01-30T08:50:01;94550.91;;;22.56;45.82
31337;BME280;22846;42.654;23.314;2023-01-30T08:52:26;94557.16;;;22.56;45.71
31337;BME280;22846;42.654;23.314;2023-01-30T08:54:52;94553.31;;;22.54;45.58
31337;BME280;22846;42.654;23.314;2023-01-30T08:57:17;94553.31;;;22.54;45.62
31337;BME280;22846;42.654;23.314;2023-01-30T08:59:43;94554.50;;;22.53;45.83
31337;BME280;22846;42.654;23.314;2023-01-30T09:02:09;94542.19;;;22.48;45.87
31337;BME280;22846;42.654;23.314;2023-01-30T09:04:35;94544.47;;;22.50;45.72
31337;BME280;22846;42.654;23.314;2023-01-30T09:07:00;94542.19;;;22.48;45.42
31337;BME280;22846;42.654;23.314;2023-01-30T09:09:27;94537.47;;;22.49;45.66
31337;BME280;22846;42.654;23.314;2023-01-30T09:11:53;94528.56;;;22.48;45.73
31337;BME280;22846;42.654;23.314;2023-01-30T09:14:18;94540.22;;;22.49;45.57
31337;BME280;22846;42.654;23.314;2023-01-30T09:16:47;94536.81;;;22.45;45.74
31337;BME280;22846;42.654;23.314;2023-01-30T09:19:23;94532.47;;;22.47;45.63
31337;BME280;22846;42.654;23.314;2023-01-30T09:21:50;94529.00;;;22.47;45.89
31337;BME280;22846;42.654;23.314;2023-01-30T09:24:16;94529.00;;;22.47;45.81
31337;BME280;22846;42.654;23.314;2023-01-30T09:26:41;94528.22;;;22.46;45.50
31337;BME280;22846;42.654;23.314;2023-01-30T09:29:12;94523.22;;;22.45;45.48
31337;BME280;22846;42.654;23.314;2023-01-30T09:31:39;94526.78;;;22.42;45.44
31337;BME280;22846;42.654;23.314;2023-01-30T09:34:05;94523.63;;;22.43;45.59
31337;BME280;22846;42.654;23.314;2023-01-30T09:36:31;94523.63;;;22.43;45.39
31337;BME280;22846;42.654;23.314;2023-01-30T09:38:56;94526.34;;;22.43;45.67
31337;BME280;22846;42.654;23.314;2023-01-30T09:47:25;94517.84;;;22.41;45.46
31337;BME280;22846;42.654;23.314;2023-01-30T09:52:33;94510.88;;;22.40;45.60
31337;BME280;22846;42.654;23.314;2023-01-30T09:57:40;94492.31;;;22.35;45.13
31337;BME280;22846;42.654;23.314;2023-01-30T10:00:34;94499.63;;;22.38;45.38
31337;BME280;22846;42.654;23.314;2023-01-30T10:03:18;94500.38;;;22.39;45.55
31337;BME280;22846;42.654;23.314;2023-01-30T10:05:55;94491.47;;;22.38;45.33
31337;BME280;22846;42.654;23.314;2023-01-30T10:16:45;94469.00;;;22.34;45.26
31337;BME280;22846;42.654;23.314;2023-01-30T10:27:28;94451.19;;;22.30;45.29
31337;BME280;22846;42.654;23.314;2023-01-30T10:29:58;94443.47;;;22.28;45.38
31337;BME280;22846;42.654;23.314;2023-01-30T10:32:28;94448.91;;;22.28;45.33
31337;BME280;22846;42.654;23.314;2023-01-30T10:35:01;94442.28;;;22.29;45.25
31337;BME280;22846;42.654;23.314;2023-01-30T10:37:30;94436.03;;;22.32;45.03
31337;BME280;22846;42.654;23.314;2023-01-30T10:45:26;94417.44;;;22.27;44.80
31337;BME280;22846;42.654;23.314;2023-01-30T10:53:35;94353.44;;;22.07;45.12
31337;BME280;22846;42.654;23.314;2023-01-30T10:56:16;94386.75;;;22.27;45.02
31337;BME280;22846;42.654;23.314;2023-01-30T11:04:03;94369.97;;;22.28;45.19
31337;BME280;22846;42.654;23.314;2023-01-30T11:06:32;94365.66;;;22.31;45.07
31337;BME280;22846;42.654;23.314;2023-01-30T11:08:59;94360.53;;;22.33;44.91
31337;BME280;22846;42.654;23.314;2023-01-30T11:11:53;94351.19;;;22.34;45.10
31337;BME280;22846;42.654;23.314;2023-01-30T11:14:18;94355.44;;;22.35;44.86
31337;BME280;22846;42.654;23.314;2023-01-30T11:16:46;94348.03;;;22.35;44.99
31337;BME280;22846;42.654;23.314;2023-01-30T11:19:14;94346.84;;;22.36;44.93
31337;BME280;22846;42.654;23.314;2023-01-30T11:21:40;94341.38;;;22.36;44.85
31337;BME280;22846;42.654;23.314;2023-01-30T11:24:28;94328.56;;;22.37;44.39
31337;BME280;22846;42.654;23.314;2023-01-30T11:26:55;94321.91;;;22.38;44.03
31337;BME280;22846;42.654;23.314;2023-01-30T11:29:33;94306.88;;;22.33;43.66
31337;BME280;22846;42.654;23.314;2023-01-30T11:32:11;94311.34;;;22.40;44.34
31337;BME280;22846;42.654;23.314;2023-01-30T11:34:41;94306.56;;;22.44;45.31
31337;BME280;22846;42.654;23.314;2023-01-30T11:37:29;94305.38;;;22.45;45.21
31337;BME280;22846;42.654;23.314;2023-01-30T11:39:55;94295.59;;;22.47;45.25
31337;BME280;22846;42.654;23.314;2023-01-30T11:42:27;94284.25;;;22.49;45.42
31337;BME280;22846;42.654;23.314;2023-01-30T11:44:57;94289.28;;;22.50;45.34
31337;BME280;22846;42.654;23.314;2023-01-30T11:47:25;94278.38;;;22.50;45.01
31337;BME280;22846;42.654;23.314;2023-01-30T11:49:53;94282.63;;;22.51;45.20
31337;BME280;22846;42.654;23.314;2023-01-30T11:52:35;94267.81;;;22.52;44.53
31337;BME280;22846;42.654;23.314;2023-01-30T11:55:05;94258.03;;;22.55;45.23
31337;BME280;22846;42.654;23.314;2023-01-30T11:57:44;94260.31;;;22.56;45.48
31337;BME280;22846;42.654;23.314;2023-01-30T12:00:20;94240.69;;;22.49;45.11
31337;BME280;22846;42.654;23.314;2023-01-30T12:02:48;94245.06;;;22.59;44.80
31337;BME280;22846;42.654;23.314;2023-01-30T12:05:30;94242.34;;;22.59;44.82
31337;BME280;22846;42.654;23.314;2023-01-30T12:10:47;94223.16;;;22.62;45.15
31337;BME280;22846;42.654;23.314;2023-01-30T12:13:34;94216.53;;;22.63;45.02
31337;BME280;22846;42.654;23.314;2023-01-30T12:19:36;94207.59;;;22.63;44.18
31337;BME280;22846;42.654;23.314;2023-01-30T12:22:01;94202.91;;;22.63;44.67
31337;BME280;22846;42.654;23.314;2023-01-30T12:24:39;94198.53;;;22.66;44.69
31337;BME280;22846;42.654;23.314;2023-01-30T12:27:24;94196.94;;;22.68;44.10
31337;BME280;22846;42.654;23.314;2023-01-30T12:29:53;94198.97;;;22.77;43.89
31337;BME280;22846;42.654;23.314;2023-01-30T12:32:25;94187.63;;;22.78;43.93
31337;BME280;22846;42.654;23.314;2023-01-30T12:34:52;94187.97;;;22.80;43.41
31337;BME280;22846;42.654;23.314;2023-01-30T12:37:27;94179.34;;;22.82;44.62
31337;BME280;22846;42.654;23.314;2023-01-30T12:40:26;94174.34;;;22.80;44.19
31337;BME280;22846;42.654;23.314;2023-01-30T12:46:03;94180.25;;;22.79;44.13
31337;BME280;22846;42.654;23.314;2023-01-30T12:54:19;94167.38;;;22.79;43.46
31337;BME280;22846;42.654;23.314;2023-01-30T13:00:03;94161.41;;;22.84;43.42
31337;BME280;22846;42.654;23.314;2023-01-30T14:42:17;94114.81;;;23.16;42.12
31337;BME280;22846;42.654;23.314;2023-01-30T14:45:15;94108.53;;;23.07;42.75
31337;BME280;22846;42.654;23.314;2023-01-30T14:47:41;94113.84;;;22.98;42.54
31337;BME280;22846;42.654;23.314;2023-01-30T14:50:21;94092.38;;;22.87;42.70
31337;BME280;22846;42.654;23.314;2023-01-30T14:52:48;94098.19;;;22.77;42.51
31337;BME280;22846;42.654;23.314;2023-01-30T14:55:23;94097.88;;;22.75;42.34
31337;BME280;22846;42.654;23.314;2023-01-30T14:57:53;94094.19;;;22.69;42.82
31337;BME280;22846;42.654;23.314;2023-01-30T15:00:24;94085.34;;;22.65;42.36
31337;BME280;22846;42.654;23.314;2023-01-30T15:02:58;94078.41;;;22.51;42.52
31337;BME280;22846;42.654;23.314;2023-01-30T15:05:39;94083.75;;;22.55;42.97
31337;BME280;22846;42.654;23.314;2023-01-30T15:14:00;94088.00;;;22.43;43.23
31337;BME280;22846;42.654;23.314;2023-01-30T15:16:45;94084.19;;;22.41;43.41
31337;BME280;22846;42.654;23.314;2023-01-30T15:19:21;94092.03;;;22.39;43.22
31337;BME280;22846;42.654;23.314;2023-01-30T15:25:32;94103.91;;;22.32;43.88
31337;BME280;22846;42.654;23.314;2023-01-30T15:33:25;94110.31;;;22.26;43.66
31337;BME280;22846;42.654;23.314;2023-01-30T15:35:51;94101.69;;;22.15;44.53
31337;BME280;22846;42.654;23.314;2023-01-30T15:38:32;94119.03;;;22.21;44.10
31337;BME280;22846;42.654;23.314;2023-01-30T15:41:01;94097.88;;;22.13;44.09
31337;BME280;22846;42.654;23.314;2023-01-30T15:43:57;94114.44;;;22.18;43.99
31337;BME280;22846;42.654;23.314;2023-01-30T15:52:14;94109.97;;;22.12;43.90
31337;BME280;22846;42.654;23.314;2023-01-30T15:54:40;94112.47;;;22.06;42.87
31337;BME280;22846;42.654;23.314;2023-01-30T15:57:16;94112.03;;;22.08;43.84
31337;BME280;22846;42.654;23.314;2023-01-30T15:59:45;94101.59;;;22.06;43.69
31337;BME280;22846;42.654;23.314;2023-01-30T16:02:27;94109.44;;;22.17;44.27
31337;BME280;22846;42.654;23.314;2023-01-30T16:05:14;94105.22;;;22.53;43.83
31337;BME280;22846;42.654;23.314;2023-01-30T16:07:40;94094.47;;;22.83;43.19
31337;BME280;22846;42.654;23.314;2023-01-30T16:12:37;94102.66;;;23.29;42.67
31337;BME280;22846;42.654;23.314;2023-01-30T16:18:03;94089.69;;;23.55;42.15
31337;BME280;22846;42.654;23.314;2023-01-30T16:20:42;94091.75;;;23.72;41.79
31337;BME280;22846;42.654;23.314;2023-01-30T16:23:20;94091.09;;;23.90;41.99
31337;BME280;22846;42.654;23.314;2023-01-30T16:25:47;94092.56;;;24.03;41.42
31337;BME280;22846;42.654;23.314;2023-01-30T16:28:21;94091.25;;;24.16;41.41
31337;BME280;22846;42.654;23.314;2023-01-30T16:30:47;94092.25;;;24.31;40.82
31337;BME280;22846;42.654;23.314;2023-01-30T16:33:15;94093.50;;;24.39;40.63
31337;BME280;22846;42.654;23.314;2023-01-30T16:35:44;94084.59;;;24.48;40.79
31337;BME280;22846;42.654;23.314;2023-01-30T16:38:46;94092.38;;;24.58;40.35